Dundee, MI

12:32 PM EDT on May 05, 2015 (GMT -0400)
Dundee, MI | | Change Station
CLOSE
Current Station
Personal Weather Station
Location: Dundee, MI
Elevation: 669 ft
Nearby Weather Stations

Elev 669 ft 41.94 °N, 83.65 °W | Updated 8 minutes ago

Overcast
Overcast
53.2 °F
Feels Like 53.2 °F
N
3.7
Wind Variable Wind from SSW

Today
High -- | Low -- °F
--% Chance of Precip.
Yesterday
High -- | Low -- °F
Precip. -- in
6:25 AM 8:37 PM
Full, 98% visible
Pressure 30.28 in
Visibility 10.0 miles
Clouds Scattered Clouds 1200 ft
Mostly Cloudy 1800 ft
Mostly Cloudy 2800 ft
Dew Point 46 °F
Humidity 77%
Rainfall 0.00 in
Snow Depth Not available.
UV 5 out of 12
Pollen 1.90 out of 12
Air Quality Not available.
Flu Activity Regional
METAR KTTF 051614Z AUTO 35008KT 10SM -RA SCT012 BKN018 BKN028 12/09 A3028 RMK AO2

More Conditions Fewer Conditions

Pressure 30.28 in
Visibility 10.0 miles
Clouds Scattered Clouds 1200 ft
Mostly Cloudy 1800 ft
Mostly Cloudy 2800 ft
Dew Point 46 °F
Humidity 77%
Rainfall 0.00 in
Snow Depth Not available.
UV 5 out of 12
Pollen 1.90 out of 12
Air Quality Not available.
Flu Activity Regional
METAR KTTF 051614Z AUTO 35008KT 10SM -RA SCT012 BKN018 BKN028 12/09 A3028 RMK AO2

More Conditions Fewer Conditions

10-Day Weather Forecast

Almanac

Astronomy

May. 05, 2015 Rise Set
Actual Time
Civil Twilight
Nautical Twilight
Astronomical Twilight
Moon
Length of Visible Light
Length of Day
Tomorrow will be .
, % of the Moon is Illuminated

Today's Extremes

State Highs State Lows

Community

WunderPhotos

Upload Photos

1,818,936 photos uploaded!

WunderBlogs® & News

Nearby

Air Quality

  Air Quality AQ Index Pollutant
Not available.

Snow Depth

Station Depth Elevation

Earthquake Activity

City Distance Mag. Time & Date
Minimum magnitude displayed is 2.5.

Coastal Water Temperatures

Place Temperature

Stations

Nearby Weather Stations

Station Location Temp. Windchill Dew Point Humidity Wind Precip. Elev Updated Type